createdAt,value
2022-09-15T00:00:00.728Z,977.0104
2022-09-15T00:01:00.864Z,976.961
2022-09-15T00:02:01.106Z,977.1209
2022-09-15T00:03:01.201Z,977.1209
2022-09-15T00:04:00.294Z,977.1209
2022-09-15T00:05:00.455Z,977.1209
2022-09-15T00:06:00.608Z,977.1927
2022-09-15T00:07:00.749Z,977.2421
2022-09-15T00:08:00.893Z,977.0031
2022-09-15T00:09:01.051Z,977.1993
2022-09-15T00:10:01.183Z,976.99
2022-09-15T00:11:00.364Z,977.2348
2022-09-15T00:12:00.498Z,977.0321
2022-09-15T00:13:00.639Z,977.2796
2022-09-15T00:14:00.787Z,977.1499
2022-09-15T00:15:00.929Z,977.1209
2022-09-15T00:16:01.079Z,977.1637
2022-09-15T00:17:01.359Z,977.1993
2022-09-15T00:18:00.362Z,977.2421
2022-09-15T00:19:00.519Z,977.2348
2022-09-15T00:20:00.684Z,977.2638
2022-09-15T00:21:00.801Z,977.1282
2022-09-15T00:22:00.959Z,977.1637
2022-09-15T00:23:01.100Z,977.2282
2022-09-15T00:24:01.256Z,977.1927
2022-09-15T00:25:00.415Z,977.1637
2022-09-15T00:26:00.554Z,977.1637
2022-09-15T00:27:00.695Z,977.2151
2022-09-15T00:28:00.952Z,977.3243
2022-09-15T00:29:00.996Z,977.2664
2022-09-15T00:30:01.174Z,977.1506
2022-09-15T00:31:00.370Z,977.3243
2022-09-15T00:32:00.439Z,977.2374
2022-09-15T00:33:00.576Z,977.2032
2022-09-15T00:34:00.720Z,977.0874
2022-09-15T00:35:00.886Z,977.3243
2022-09-15T00:36:01.013Z,977.2256
2022-09-15T00:37:01.153Z,977.3243
2022-09-15T00:38:00.296Z,977.1097
2022-09-15T00:39:00.444Z,977.1097
2022-09-15T00:40:00.664Z,977.2085
2022-09-15T00:41:00.799Z,977.2374
2022-09-15T00:42:00.902Z,976.9939
2022-09-15T00:43:01.042Z,977.0518
2022-09-15T00:44:01.205Z,977.1677
2022-09-15T00:45:00.340Z,976.965
2022-09-15T00:46:00.561Z,977.0229
2022-09-15T00:47:18.251Z,977.0808
2022-09-15T00:48:00.781Z,977.0452
2022-09-15T00:49:00.923Z,976.9939
2022-09-15T00:50:01.066Z,976.9808
2022-09-15T00:51:01.245Z,977.1834
2022-09-15T00:52:00.365Z,976.9808
2022-09-15T00:53:00.518Z,976.9518
2022-09-15T00:54:00.660Z,977.0518
2022-09-15T00:55:00.815Z,977.0926
2022-09-15T00:56:00.983Z,977.1506
2022-09-15T00:57:01.106Z,977.0926
2022-09-15T00:58:01.249Z,977.0926
2022-09-15T00:59:00.386Z,977.0926
2022-09-15T01:00:00.540Z,977.0926
2022-09-15T01:01:00.840Z,976.965
2022-09-15T01:02:00.903Z,977.0874
2022-09-15T01:03:01.090Z,976.9939
2022-09-15T01:04:01.136Z,977.0005
2022-09-15T01:05:00.273Z,976.9939
2022-09-15T01:06:00.431Z,976.9939
2022-09-15T01:07:00.579Z,977.1097
2022-09-15T01:08:00.735Z,977.0966
2022-09-15T01:09:00.861Z,977.0255
2022-09-15T01:10:01.018Z,977.0545
2022-09-15T01:11:01.137Z,976.99
2022-09-15T01:12:00.276Z,977.063
2022-09-15T01:13:00.428Z,976.9985
2022-09-15T01:14:00.568Z,977.2946
2022-09-15T01:15:00.748Z,976.9854
2022-09-15T01:16:00.914Z,977.0722
2022-09-15T01:17:01.008Z,977.0367
2022-09-15T01:18:01.144Z,977.0873
2022-09-15T01:19:00.336Z,977.0722
2022-09-15T01:20:00.452Z,976.9209
2022-09-15T01:21:00.617Z,977.1012
2022-09-15T01:22:00.734Z,977.0722
2022-09-15T01:23:00.886Z,976.8538
2022-09-15T01:24:01.025Z,976.9117
2022-09-15T01:25:01.174Z,976.7893
2022-09-15T01:26:00.340Z,976.8761
2022-09-15T01:27:00.460Z,977.0722
2022-09-15T01:28:00.615Z,976.9564
2022-09-15T01:29:00.753Z,977.0722
2022-09-15T01:30:00.906Z,976.9275
2022-09-15T01:31:01.073Z,977.0294
2022-09-15T01:32:01.281Z,976.8919
2022-09-15T01:33:00.349Z,977.0722
2022-09-15T01:34:00.495Z,976.8538
2022-09-15T01:35:00.646Z,976.8603
2022-09-15T01:36:00.788Z,976.8248
2022-09-15T01:37:00.979Z,976.9696
2022-09-15T01:38:01.100Z,976.8406
2022-09-15T01:39:01.252Z,976.9919
2022-09-15T01:40:00.418Z,976.7959
2022-09-15T01:41:00.550Z,976.9472
2022-09-15T01:42:00.716Z,976.9604
2022-09-15T01:43:00.885Z,977.0183
2022-09-15T01:44:01.013Z,976.9827
2022-09-15T01:45:01.160Z,976.9248
2022-09-15T01:46:00.370Z,977.0966
2022-09-15T01:47:00.457Z,977.0966
2022-09-15T01:48:00.640Z,976.9939
2022-09-15T01:49:00.741Z,976.936
2022-09-15T01:50:00.889Z,976.8735
2022-09-15T01:51:01.029Z,976.9051
2022-09-15T01:52:01.187Z,976.8406
2022-09-15T01:53:00.341Z,976.7059
2022-09-15T01:54:00.510Z,976.7538
2022-09-15T01:55:00.635Z,976.6993
2022-09-15T01:56:00.778Z,976.8406
2022-09-15T01:57:00.932Z,976.7669
2022-09-15T01:58:01.086Z,976.838
2022-09-15T01:59:01.251Z,976.8518
2022-09-15T02:00:00.359Z,976.9228
2022-09-15T02:01:00.553Z,976.9228
2022-09-15T02:02:00.714Z,976.9024
2022-09-15T02:03:00.803Z,976.9604
2022-09-15T02:04:00.969Z,976.8761
2022-09-15T02:05:01.097Z,977.1433
2022-09-15T02:06:01.236Z,976.8742
2022-09-15T02:07:00.384Z,976.9676
2022-09-15T02:08:00.517Z,976.9676
2022-09-15T02:09:00.683Z,977.1677
2022-09-15T02:10:00.821Z,977.0183
2022-09-15T02:11:00.973Z,977.0722
2022-09-15T02:12:01.142Z,976.8919
2022-09-15T02:13:00.273Z,976.8268
2022-09-15T02:14:00.450Z,976.9051
2022-09-15T02:15:00.567Z,977.0722
2022-09-15T02:16:00.767Z,977.0294
2022-09-15T02:17:00.861Z,976.9301
2022-09-15T02:18:01.009Z,976.9301
2022-09-15T02:19:01.172Z,976.8433
2022-09-15T02:20:00.342Z,976.9393
2022-09-15T02:21:00.437Z,977.0196
2022-09-15T02:22:00.582Z,976.9413
2022-09-15T02:23:00.734Z,976.8551
2022-09-15T02:24:00.913Z,976.9347
2022-09-15T02:25:01.029Z,977.0084
2022-09-15T02:26:01.163Z,977.0373
2022-09-15T02:27:00.315Z,977.1156
2022-09-15T02:28:00.457Z,977.0709
2022-09-15T02:29:00.644Z,977.0057
2022-09-15T02:30:00.754Z,977.0577
2022-09-15T02:31:00.898Z,977.0886
2022-09-15T02:32:05.097Z,977.0038
2022-09-15T02:33:01.198Z,976.9374
2022-09-15T02:34:00.354Z,977.0505
2022-09-15T02:35:00.557Z,977.0505
2022-09-15T02:36:00.625Z,977.1603
2022-09-15T02:37:00.776Z,977.0018
2022-09-15T02:38:00.920Z,977.1978
2022-09-15T02:39:01.069Z,977.0038
2022-09-15T02:40:01.253Z,977.0774
2022-09-15T02:41:00.362Z,976.9906
2022-09-15T02:42:00.508Z,976.9328
2022-09-15T02:43:00.661Z,977.0196
2022-09-15T02:44:00.813Z,977.1063
2022-09-15T02:45:00.985Z,977.0616
2022-09-15T02:46:01.177Z,977.082
2022-09-15T02:47:00.259Z,976.915
2022-09-15T02:48:00.404Z,977.0215
2022-09-15T02:49:00.547Z,976.9347
2022-09-15T02:50:00.712Z,977.0288
2022-09-15T02:51:00.851Z,976.9505
2022-09-15T02:52:01.020Z,976.9216
2022-09-15T02:53:01.135Z,976.8499
2022-09-15T02:54:00.287Z,977.0235
2022-09-15T02:55:00.435Z,976.8657
2022-09-15T02:56:00.589Z,976.9374
2022-09-15T02:57:00.756Z,976.9505
2022-09-15T02:58:00.885Z,976.9439
2022-09-15T02:59:01.034Z,977.0084
2022-09-15T03:00:01.180Z,976.8637
2022-09-15T03:01:00.408Z,977.0505
2022-09-15T03:02:00.598Z,976.8262
2022-09-15T03:03:00.622Z,976.9393
2022-09-15T03:04:00.775Z,976.9459
2022-09-15T03:05:00.924Z,976.9683
2022-09-15T03:06:01.067Z,976.9169
2022-09-15T03:07:01.233Z,976.9683
2022-09-15T03:08:00.356Z,977.0774
2022-09-15T03:09:00.507Z,976.9709
2022-09-15T03:10:00.656Z,976.9946
2022-09-15T03:11:00.801Z,977.0393
2022-09-15T03:12:00.977Z,976.888
2022-09-15T03:13:01.107Z,976.9308
2022-09-15T03:14:01.245Z,977.0952
2022-09-15T03:15:00.383Z,977.1399
2022-09-15T03:16:00.601Z,976.9104
2022-09-15T03:17:00.686Z,976.9328
2022-09-15T03:18:00.825Z,977.0261
2022-09-15T03:19:00.991Z,976.9328
2022-09-15T03:20:01.138Z,977.0261
2022-09-15T03:21:00.266Z,977.0485
2022-09-15T03:22:00.411Z,976.9748
2022-09-15T03:23:00.557Z,977.082
2022-09-15T03:24:00.730Z,977.0524
2022-09-15T03:25:00.888Z,977.0952
2022-09-15T03:26:01.014Z,977.2352
2022-09-15T03:27:01.155Z,977.0774
2022-09-15T03:28:00.293Z,977.1642
2022-09-15T03:29:00.466Z,977.251
2022-09-15T03:30:00.603Z,977.1063
2022-09-15T03:31:00.736Z,977.084
2022-09-15T03:32:00.953Z,977.082
2022-09-15T03:33:01.015Z,976.888
2022-09-15T03:34:01.211Z,976.9525
2022-09-15T03:35:00.322Z,976.917
2022-09-15T03:36:00.425Z,977.084
2022-09-15T03:37:00.572Z,977.0196
2022-09-15T03:38:00.711Z,976.9328
2022-09-15T03:39:00.905Z,976.9617
2022-09-15T03:40:01.079Z,976.9617
2022-09-15T03:41:01.148Z,976.9328
2022-09-15T03:42:00.285Z,976.9617
2022-09-15T03:43:00.464Z,976.8769
2022-09-15T03:44:00.594Z,976.7855
2022-09-15T03:45:00.754Z,976.9525
2022-09-15T03:46:01.018Z,976.9794
2022-09-15T03:47:01.025Z,976.9926
2022-09-15T03:48:01.191Z,977.0196
2022-09-15T03:49:00.325Z,976.9104
2022-09-15T03:50:00.476Z,977.0038
2022-09-15T03:51:00.637Z,976.9814
2022-09-15T03:52:00.765Z,976.9347
2022-09-15T03:53:00.907Z,976.8789
2022-09-15T03:54:01.094Z,976.9571
2022-09-15T03:55:01.212Z,976.892
2022-09-15T03:56:00.376Z,976.9216
2022-09-15T03:57:00.529Z,976.8637
2022-09-15T03:58:00.669Z,976.9926
2022-09-15T03:59:00.807Z,976.9906
2022-09-15T04:00:00.965Z,976.9617
2022-09-15T04:01:01.204Z,976.9617
2022-09-15T04:02:01.353Z,977.0196
2022-09-15T04:03:00.400Z,976.8749
2022-09-15T04:04:00.551Z,976.846
2022-09-15T04:05:00.702Z,976.9038
2022-09-15T04:06:00.839Z,976.888
2022-09-15T04:07:01.011Z,976.8216
2022-09-15T04:08:01.135Z,976.8591
2022-09-15T04:09:00.280Z,976.7244
2022-09-15T04:10:00.424Z,976.7499
2022-09-15T04:11:00.576Z,976.8591
2022-09-15T04:12:00.741Z,976.7637
2022-09-15T04:13:00.876Z,977.0084
2022-09-15T04:14:01.016Z,976.8499
2022-09-15T04:15:01.180Z,976.9084
2022-09-15T04:16:00.357Z,976.9459
2022-09-15T04:17:00.502Z,976.9328
2022-09-15T04:18:00.615Z,977.0485
2022-09-15T04:19:00.778Z,976.9617
2022-09-15T04:20:00.940Z,976.7422
2022-09-15T04:21:01.076Z,977.0485
2022-09-15T04:22:01.274Z,976.846
2022-09-15T04:23:00.375Z,976.9748
2022-09-15T04:24:00.533Z,976.9748
2022-09-15T04:25:00.673Z,977.082
2022-09-15T04:26:00.830Z,976.8657
2022-09-15T04:27:00.970Z,976.9235
2022-09-15T04:28:01.133Z,976.9663
2022-09-15T04:29:04.206Z,976.8591
2022-09-15T04:30:00.397Z,977.0242
2022-09-15T04:31:00.636Z,976.8946
2022-09-15T04:32:00.703Z,976.7789
2022-09-15T04:33:00.871Z,976.9663
2022-09-15T04:34:00.995Z,977.0505
2022-09-15T04:35:01.144Z,977.0505
2022-09-15T04:36:00.289Z,976.8637
2022-09-15T04:37:00.440Z,976.9729
2022-09-15T04:38:00.601Z,976.9367
2022-09-15T04:39:00.740Z,976.9078
2022-09-15T04:40:00.954Z,976.9794
2022-09-15T04:41:01.022Z,977.0084
2022-09-15T04:42:01.166Z,976.8216
2022-09-15T04:43:00.316Z,976.9663
2022-09-15T04:44:00.464Z,977.0524
2022-09-15T04:45:00.640Z,976.9505
2022-09-15T04:46:00.754Z,977.0505
2022-09-15T04:47:00.954Z,977.0794
2022-09-15T04:48:01.059Z,977.0505
2022-09-15T04:49:01.221Z,977.0663
2022-09-15T04:50:00.357Z,976.9952
2022-09-15T04:51:00.494Z,977.155
2022-09-15T04:52:00.642Z,977.1063
2022-09-15T04:53:00.791Z,976.9499
2022-09-15T04:54:00.972Z,976.9656
2022-09-15T04:55:01.092Z,977.0103
2022-09-15T04:56:01.240Z,977.0393
2022-09-15T04:57:00.389Z,977.0149
2022-09-15T04:58:00.527Z,977.1642
2022-09-15T04:59:03.971Z,977.1372
2022-09-15T05:00:00.852Z,977.0077
2022-09-15T05:01:01.013Z,977.0077
2022-09-15T05:02:01.194Z,977.153
2022-09-15T05:03:00.257Z,977.1103
2022-09-15T05:04:00.400Z,977.3378
2022-09-15T05:05:00.561Z,977.251
2022-09-15T05:06:00.699Z,977.3259
2022-09-15T05:07:00.854Z,977.1951
2022-09-15T05:08:01.008Z,977.1642
2022-09-15T05:09:01.172Z,977.2221
2022-09-15T05:10:00.310Z,977.1353
2022-09-15T05:11:00.443Z,977.1195
2022-09-15T05:12:00.593Z,977.1195
2022-09-15T05:13:00.745Z,977.251
2022-09-15T05:14:00.894Z,977.0551
2022-09-15T05:15:01.062Z,977.1484
2022-09-15T05:16:01.240Z,977.2129
2022-09-15T05:17:00.330Z,977.1484
2022-09-15T05:18:00.483Z,977.0242
2022-09-15T05:19:00.649Z,977.2261
2022-09-15T05:20:00.771Z,977.2261
2022-09-15T05:21:00.917Z,977.1978
2022-09-15T05:22:01.068Z,977.111
2022-09-15T05:23:01.227Z,977.2978
2022-09-15T05:24:00.395Z,977.1971
2022-09-15T05:25:00.526Z,977.0663
2022-09-15T05:26:00.675Z,977.3977
2022-09-15T05:27:00.819Z,977.253
2022-09-15T05:28:00.963Z,977.1531
2022-09-15T05:29:01.122Z,977.2399
2022-09-15T05:30:31.723Z,977.3688
2022-09-15T05:31:00.443Z,977.3267
2022-09-15T05:32:00.531Z,977.3399
2022-09-15T05:33:00.671Z,977.2688
2022-09-15T05:34:00.823Z,977.2688
2022-09-15T05:35:00.989Z,977.2978
2022-09-15T05:36:01.125Z,977.253
2022-09-15T05:37:00.276Z,977.376
2022-09-15T05:38:00.423Z,977.376
2022-09-15T05:39:00.573Z,977.3182
2022-09-15T05:40:03.161Z,977.3241
2022-09-15T05:41:00.856Z,977.2018
2022-09-15T05:42:01.013Z,977.3669
2022-09-15T05:43:01.168Z,977.2419
2022-09-15T05:44:00.309Z,977.2577
2022-09-15T05:45:00.487Z,977.3511
2022-09-15T05:46:00.609Z,977.3024
2022-09-15T05:47:00.845Z,977.4537
2022-09-15T05:48:00.904Z,977.2313
2022-09-15T05:49:01.042Z,977.3267
2022-09-15T05:50:01.209Z,977.3418
2022-09-15T05:51:00.353Z,977.3267
2022-09-15T05:52:00.484Z,977.4424
2022-09-15T05:53:00.654Z,977.3182
2022-09-15T05:54:00.779Z,977.28
2022-09-15T05:55:00.927Z,977.2577
2022-09-15T05:56:01.074Z,977.3156
2022-09-15T05:57:01.227Z,977.2866
2022-09-15T05:58:00.374Z,977.1728
2022-09-15T05:59:00.522Z,977.28
2022-09-15T06:00:00.661Z,977.0998
2022-09-15T06:01:00.807Z,977.3109
2022-09-15T06:02:01.000Z,977.2241
2022-09-15T06:03:01.230Z,977.2241
2022-09-15T06:04:01.250Z,977.1662
2022-09-15T06:05:00.390Z,977.3024
2022-09-15T06:06:00.533Z,977.382
2022-09-15T06:07:00.681Z,977.2083
2022-09-15T06:08:00.842Z,977.2373
2022-09-15T06:09:01.243Z,977.1794
2022-09-15T06:10:01.115Z,977.3182
2022-09-15T06:11:01.257Z,977.2222
2022-09-15T06:12:00.395Z,977.2196
2022-09-15T06:13:00.539Z,977.2683
2022-09-15T06:14:00.698Z,977.2459
2022-09-15T06:15:00.853Z,977.2169
2022-09-15T06:16:01.052Z,977.4196
2022-09-15T06:17:01.136Z,977.3189
2022-09-15T06:18:00.273Z,977.3222
2022-09-15T06:19:00.438Z,977.3064
2022-09-15T06:20:00.567Z,977.2445
2022-09-15T06:21:00.721Z,977.3892
2022-09-15T06:22:00.864Z,977.3669
2022-09-15T06:23:01.012Z,977.2511
2022-09-15T06:24:01.173Z,977.2577
2022-09-15T06:25:00.299Z,977.382
2022-09-15T06:26:00.446Z,977.4629
2022-09-15T06:27:00.590Z,977.3892
2022-09-15T06:28:00.745Z,977.4688
2022-09-15T06:29:00.923Z,977.3399
2022-09-15T06:30:01.021Z,977.3399
2022-09-15T06:31:01.169Z,977.2261
2022-09-15T06:32:00.384Z,977.4003
2022-09-15T06:33:00.470Z,977.2978
2022-09-15T06:34:00.647Z,977.2892
2022-09-15T06:35:00.800Z,977.3669
2022-09-15T06:36:00.917Z,977.3735
2022-09-15T06:37:01.071Z,977.4669
2022-09-15T06:38:01.222Z,977.509
2022-09-15T06:39:00.372Z,977.4511
2022-09-15T06:40:00.579Z,977.5643
2022-09-15T06:41:00.656Z,977.3906
2022-09-15T06:42:02.727Z,977.4347
2022-09-15T06:43:00.951Z,977.4801
2022-09-15T06:44:01.103Z,977.4379
2022-09-15T06:45:01.273Z,977.4281
2022-09-15T06:46:00.466Z,977.4907
2022-09-15T06:47:00.547Z,977.4749
2022-09-15T06:48:22.918Z,977.4236
2022-09-15T06:49:00.834Z,977.473
2022-09-15T06:50:01.004Z,977.5598
2022-09-15T06:51:01.132Z,977.6865
2022-09-15T06:52:00.268Z,977.5507
2022-09-15T06:53:00.412Z,977.573
2022-09-15T06:54:00.565Z,977.7498
2022-09-15T06:55:00.742Z,977.6509
2022-09-15T06:56:00.856Z,977.6629
2022-09-15T06:57:01.012Z,977.556
2022-09-15T06:58:01.140Z,977.6271
2022-09-15T06:59:00.300Z,977.763
2022-09-15T07:00:00.446Z,977.7182
2022-09-15T07:01:00.581Z,977.7182
2022-09-15T07:02:04.904Z,977.7491
2022-09-15T07:03:01.004Z,977.7182
2022-09-15T07:04:01.079Z,977.8605
2022-09-15T07:05:01.188Z,977.75
2022-09-15T07:06:00.307Z,977.6829
2022-09-15T07:07:00.457Z,977.605
2022-09-15T07:08:00.606Z,977.8312
2022-09-15T07:09:00.746Z,977.8668
2022-09-15T07:10:00.930Z,977.749
2022-09-15T07:11:01.046Z,977.8406
2022-09-15T07:12:01.194Z,977.6714
2022-09-15T07:13:00.337Z,977.7788
2022-09-15T07:14:00.482Z,977.6695
2022-09-15T07:15:00.653Z,977.6066
2022-09-15T07:16:00.818Z,977.6537
2022-09-15T07:17:00.919Z,977.8257
2022-09-15T07:18:01.086Z,977.8008
2022-09-15T07:19:01.198Z,977.7857
2022-09-15T07:20:00.375Z,977.6252
2022-09-15T07:21:00.503Z,977.6735
2022-09-15T07:22:00.649Z,977.9524
2022-09-15T07:23:00.799Z,977.7251
2022-09-15T07:24:05.112Z,977.7648
2022-09-15T07:25:01.100Z,977.8361
2022-09-15T07:26:01.234Z,977.7518
2022-09-15T07:27:00.369Z,977.8884
2022-09-15T07:28:00.517Z,977.9325
2022-09-15T07:29:00.671Z,977.8884
2022-09-15T07:30:00.826Z,977.9729
2022-09-15T07:31:00.982Z,977.9994
2022-09-15T07:32:01.195Z,977.9637
2022-09-15T07:34:00.363Z,977.7811
2022-09-15T07:35:00.499Z,978.0423
2022-09-15T07:36:00.665Z,977.7521
2022-09-15T07:37:00.802Z,977.9637
2022-09-15T07:38:00.948Z,978.0779
2022-09-15T07:39:01.101Z,977.8082
2022-09-15T07:40:01.363Z,978.0779
2022-09-15T07:41:00.426Z,977.7568
2022-09-15T07:42:00.544Z,977.8697
2022-09-15T07:43:00.693Z,977.7807
2022-09-15T07:44:00.850Z,977.9722
2022-09-15T07:45:00.995Z,977.9928
2022-09-15T07:46:01.202Z,977.977
2022-09-15T07:47:00.293Z,977.9546
2022-09-15T07:48:00.440Z,978.0707
2022-09-15T07:49:00.599Z,978.0127
2022-09-15T07:50:00.728Z,978.0799
2022-09-15T07:51:00.912Z,977.9618
2022-09-15T07:52:01.031Z,978.0726
2022-09-15T07:53:01.180Z,978.1512
2022-09-15T07:54:00.341Z,977.9546
2022-09-15T07:55:00.461Z,978.0114
2022-09-15T07:56:00.620Z,978.0379
2022-09-15T07:57:00.760Z,978.1832
2022-09-15T07:58:00.906Z,978.0404
2022-09-15T07:59:01.037Z,978.0404
2022-09-15T08:00:01.204Z,978.0894
2022-09-15T08:01:00.415Z,978.0404
2022-09-15T08:02:00.526Z,978.2122
2022-09-15T08:03:00.634Z,978.1813
2022-09-15T08:04:00.773Z,978.0063
2022-09-15T08:05:00.952Z,978.186
2022-09-15T08:06:01.094Z,978.0401
2022-09-15T08:07:01.210Z,978.0831
2022-09-15T08:08:00.362Z,978.0382
2022-09-15T08:09:01.078Z,978.0799
2022-09-15T08:10:00.653Z,978.2809
2022-09-15T08:11:00.820Z,978.1179
2022-09-15T08:12:00.942Z,978.1293
2022-09-15T08:13:01.097Z,978.105
2022-09-15T08:14:01.229Z,978.1619
2022-09-15T08:15:00.371Z,978.074
2022-09-15T08:16:00.571Z,978.1369
2022-09-15T08:17:00.677Z,978.0029
2022-09-15T08:18:00.810Z,978.2416
2022-09-15T08:19:00.973Z,978.1433
2022-09-15T08:20:01.117Z,978.2129
2022-09-15T08:21:00.255Z,978.168
2022-09-15T08:22:00.415Z,978.1212
2022-09-15T08:23:00.563Z,978.1861
2022-09-15T08:24:00.709Z,978.0744
2022-09-15T08:25:00.848Z,978.1234
2022-09-15T08:26:01.021Z,978.0314
2022-09-15T08:27:01.138Z,978.2734
2022-09-15T08:28:00.285Z,978.1139
2022-09-15T08:29:00.437Z,978.2306
2022-09-15T08:30:00.582Z,978.2732
2022-09-15T08:31:00.759Z,978.2084
2022-09-15T08:32:00.882Z,978.3712
2022-09-15T08:33:01.024Z,978.2239
2022-09-15T08:34:01.194Z,978.3422
2022-09-15T08:35:00.320Z,978.3112
2022-09-15T08:36:00.470Z,978.3985
2022-09-15T08:37:00.609Z,978.4467
2022-09-15T08:38:00.757Z,978.3311
2022-09-15T08:39:00.911Z,978.3093
2022-09-15T08:40:01.072Z,978.3112
2022-09-15T08:41:01.180Z,978.3694
2022-09-15T08:42:00.363Z,978.3712
2022-09-15T08:43:00.485Z,978.3357
2022-09-15T08:44:00.625Z,978.3824
2022-09-15T08:45:00.763Z,978.5299
2022-09-15T08:46:01.006Z,978.4869
2022-09-15T08:47:01.078Z,978.4072
2022-09-15T08:48:01.223Z,978.372
2022-09-15T08:49:02.980Z,978.2933
2022-09-15T08:50:00.494Z,978.3224
2022-09-15T08:51:00.642Z,978.5299
2022-09-15T08:52:00.825Z,978.6013
2022-09-15T08:53:00.951Z,978.2267
2022-09-15T08:54:01.125Z,978.2466
2022-09-15T08:55:01.241Z,978.3095
2022-09-15T08:56:00.392Z,978.3095
2022-09-15T08:57:00.549Z,978.3095
2022-09-15T08:58:00.707Z,978.3895
2022-09-15T08:59:00.833Z,978.3247
2022-09-15T09:00:00.977Z,978.4759
2022-09-15T09:01:01.120Z,978.6371
2022-09-15T09:02:00.347Z,978.5656
2022-09-15T09:03:00.492Z,978.3939
2022-09-15T09:04:00.584Z,978.2437
2022-09-15T09:05:00.734Z,978.4729
2022-09-15T09:06:00.881Z,978.4181
2022-09-15T09:07:01.035Z,978.3467
2022-09-15T09:08:01.190Z,978.5263
2022-09-15T09:09:00.332Z,978.453
2022-09-15T09:10:00.484Z,978.3976
2022-09-15T09:11:00.636Z,978.4115
2022-09-15T09:12:00.773Z,978.453
2022-09-15T09:13:00.915Z,978.4754
2022-09-15T09:14:01.073Z,978.3909
2022-09-15T09:15:01.235Z,978.4706
2022-09-15T09:16:00.403Z,978.5373
2022-09-15T09:17:00.511Z,978.5373
2022-09-15T09:18:00.646Z,978.524
2022-09-15T09:19:00.796Z,978.564
2022-09-15T09:20:00.969Z,978.416
2022-09-15T09:21:01.086Z,978.3846
2022-09-15T09:22:01.238Z,978.5151
2022-09-15T09:23:00.367Z,978.4193
2022-09-15T09:24:00.509Z,978.5835
2022-09-15T09:25:05.887Z,978.5769
2022-09-15T09:26:00.812Z,978.5121
2022-09-15T09:27:00.955Z,978.4284
2022-09-15T09:28:01.102Z,978.5854
2022-09-15T09:30:00.400Z,978.6193
2022-09-15T09:31:00.605Z,978.6641
2022-09-15T09:32:00.666Z,978.4857
2022-09-15T09:33:00.811Z,978.5438
2022-09-15T09:34:00.956Z,978.6037
2022-09-15T09:35:01.121Z,978.6037
2022-09-15T09:36:01.250Z,978.568
2022-09-15T09:37:00.395Z,978.626
2022-09-15T09:38:00.555Z,978.6484
2022-09-15T09:39:00.691Z,978.6146
2022-09-15T09:40:00.962Z,978.6793
2022-09-15T09:41:02.528Z,978.7289
2022-09-15T09:42:01.142Z,978.5342
2022-09-15T09:43:00.287Z,978.7246
2022-09-15T09:44:00.425Z,978.6376
2022-09-15T09:45:00.591Z,978.5741
2022-09-15T09:46:00.760Z,978.5252
2022-09-15T09:47:00.860Z,978.5917
2022-09-15T09:48:01.908Z,978.7368
2022-09-15T09:49:01.144Z,978.6093
2022-09-15T09:50:00.307Z,978.5869
2022-09-15T09:51:00.440Z,978.5156
2022-09-15T09:52:00.591Z,978.654
2022-09-15T09:53:00.742Z,978.5736
2022-09-15T09:54:00.907Z,978.5894
2022-09-15T09:55:01.061Z,978.625
2022-09-15T09:56:01.255Z,978.5471
2022-09-15T09:57:00.352Z,978.6111
2022-09-15T09:58:00.491Z,978.5471
2022-09-15T09:59:00.636Z,978.4891
2022-09-15T10:00:00.770Z,978.5471
2022-09-15T10:01:00.957Z,978.6335
2022-09-15T10:02:01.060Z,978.5471
2022-09-15T10:03:01.202Z,978.4121
2022-09-15T10:04:00.354Z,978.4794
2022-09-15T10:05:00.540Z,978.4557
2022-09-15T10:06:00.674Z,978.4466
2022-09-15T10:07:00.801Z,978.5252
2022-09-15T10:08:00.948Z,978.472
2022-09-15T10:09:01.112Z,978.4405
2022-09-15T10:10:01.275Z,978.4967
2022-09-15T10:11:00.413Z,978.3748
2022-09-15T10:12:00.547Z,978.2297
2022-09-15T10:13:00.700Z,978.3083
2022-09-15T10:14:00.852Z,978.2635
2022-09-15T10:15:01.013Z,978.3989
2022-09-15T10:16:01.167Z,978.2519
2022-09-15T10:17:00.355Z,978.2917
2022-09-15T10:18:00.433Z,978.1888
2022-09-15T10:19:00.570Z,978.3599
2022-09-15T10:20:00.749Z,978.1674
2022-09-15T10:21:00.885Z,978.1589
2022-09-15T10:22:01.036Z,978.3465
2022-09-15T10:23:01.184Z,978.3174
2022-09-15T10:24:00.331Z,978.2012
2022-09-15T10:25:00.509Z,978.2394
2022-09-15T10:26:00.726Z,978.295
2022-09-15T10:27:00.806Z,978.2186
2022-09-15T10:28:00.953Z,978.2477
2022-09-15T10:29:01.083Z,978.235
2022-09-15T10:30:01.240Z,978.2726
2022-09-15T10:31:00.371Z,978.2145
2022-09-15T10:32:00.560Z,978.2543
2022-09-15T10:33:00.682Z,978.2433
2022-09-15T10:34:00.789Z,978.2095
2022-09-15T10:35:00.946Z,978.2834
2022-09-15T10:36:01.102Z,978.2834
2022-09-15T10:37:01.257Z,978.4658
2022-09-15T10:38:00.416Z,978.371
2022-09-15T10:39:00.540Z,978.5299
2022-09-15T10:40:00.775Z,978.209
2022-09-15T10:41:00.853Z,978.2514
2022-09-15T10:42:00.995Z,978.209
2022-09-15T10:43:01.169Z,978.2374
2022-09-15T10:44:00.299Z,978.2374
2022-09-15T10:45:00.460Z,978.2242
2022-09-15T10:46:00.645Z,978.2514
2022-09-15T10:47:00.772Z,978.1059
2022-09-15T10:48:00.905Z,978.253
2022-09-15T10:49:01.055Z,978.2863
2022-09-15T10:50:01.218Z,978.0917
2022-09-15T10:51:00.380Z,978.2937
2022-09-15T10:52:00.483Z,978.3453
2022-09-15T10:53:00.644Z,978.0114
2022-09-15T10:54:00.996Z,978.1793
2022-09-15T10:55:00.988Z,978.2823
2022-09-15T10:56:01.125Z,978.0813
2022-09-15T10:57:01.251Z,978.1951
2022-09-15T10:58:00.400Z,978.1708
2022-09-15T10:59:00.536Z,978.204
2022-09-15T11:00:00.685Z,978.2511
2022-09-15T11:01:00.926Z,978.2954
2022-09-15T11:02:01.012Z,978.2711
2022-09-15T11:03:01.111Z,978.3584
2022-09-15T11:04:01.243Z,978.4008
2022-09-15T11:05:00.389Z,978.3135
2022-09-15T11:06:00.559Z,978.3378
2022-09-15T11:07:00.687Z,978.3112
2022-09-15T11:08:00.831Z,978.3985
2022-09-15T11:09:00.983Z,978.4276
2022-09-15T11:10:01.137Z,978.253
2022-09-15T11:11:00.301Z,978.3087
2022-09-15T11:12:00.426Z,978.3584
2022-09-15T11:13:00.572Z,978.3565
2022-09-15T11:14:00.723Z,978.3607
2022-09-15T11:15:00.863Z,978.3467
2022-09-15T11:16:01.090Z,978.4189
2022-09-15T11:17:01.189Z,978.3449
2022-09-15T11:18:00.304Z,978.4422
2022-09-15T11:19:00.457Z,978.4237
2022-09-15T11:20:00.590Z,978.3648
2022-09-15T11:21:00.741Z,978.4212
2022-09-15T11:22:00.908Z,978.2453
2022-09-15T11:23:01.041Z,978.4632
2022-09-15T11:24:01.185Z,978.499
2022-09-15T11:25:00.335Z,978.4375
2022-09-15T11:26:00.483Z,978.5706
2022-09-15T11:27:00.666Z,978.4431
2022-09-15T11:28:00.776Z,978.3772
2022-09-15T11:29:00.926Z,978.3455
2022-09-15T11:30:01.077Z,978.2787
2022-09-15T11:31:01.286Z,978.4592
2022-09-15T11:32:00.486Z,978.4309
2022-09-15T11:33:00.506Z,978.5175
2022-09-15T11:34:00.655Z,978.2721
2022-09-15T11:35:00.797Z,978.4063
2022-09-15T11:36:00.952Z,978.2451
2022-09-15T11:37:01.117Z,978.375
2022-09-15T11:38:01.245Z,978.343
2022-09-15T11:39:00.397Z,978.4852
2022-09-15T11:40:00.594Z,978.3921
2022-09-15T11:41:00.691Z,978.3168
2022-09-15T11:42:00.862Z,978.4375
2022-09-15T11:43:00.980Z,978.4632
2022-09-15T11:44:01.142Z,978.4632
2022-09-15T11:45:00.299Z,978.4375
2022-09-15T11:46:00.439Z,978.3682
2022-09-15T11:47:00.619Z,978.444
2022-09-15T11:48:00.743Z,978.243